Terminal Aerodrome Forecast
Issued by NWS New Orleans/Baton Rouge, LA

Home | Current Version | Previous Version | Text Only | Print | Product List | Glossary On
Versions: 1 2 3 4 5 6 7 8 9 10 11 12 13 14 15 16 17 18 19 20 21 22 23 24
000
FTUS44 KLIX 292300
TAFNEW
TAF
KNEW 292322Z 3000/3024 22006KT P6SM FEW090 SCT250
     FM300400 28006KT P6SM SCT090 BKN250
     FM300800 33010KT P6SM BKN050
     FM301100 01014KT P6SM SCT090
     FM302000 03009KT P6SM SCT250=

USA.gov is the U.S. government's official web portal to all federal, state and local government web resources and services.